Spring Valley, CA

1:15 PM PDT on August 21, 2014 (GMT -0700)
Conrad/Estrella | Change Station
CLOSE
Current Station
Personal Weather Station
Location: Spring Valley, CA
Elevation: 564 ft
Nearby Weather Stations

Elev 564 ft 32.75 °N, 116.99 °W | Updated 12 minutes ago

Partly Cloudy
Partly Cloudy
83.7 °F
Feels Like 87 °F
N
4.7
Wind Variable Wind from West

Today
High -- | Low -- °F
--% Chance of Precip.
Yesterday
High -- | Low -- °F
Precip. -- in
6:15 AM 7:26 PM
Waning Crescent, 12% visible
Pressure 29.94 in
Visibility 10.0 miles
Clouds Few 9000 ft
Few 11000 ft
Heat Index 87 °F
Dew Point 67 °F
Humidity 58%
Rainfall 0.00 in
Snow Depth Not available.
UV 11 out of 12
Pollen 4.80 out of 12
Ozone Good
PM2.5 Good
Flu Activity Not available.
METAR KSEE 211955Z AUTO 28003KT 10SM FEW090 FEW110 31/16 A2994 RMK AO2

More Conditions Fewer Conditions

Pressure 29.94 in
Visibility 10.0 miles
Clouds Few 9000 ft
Few 11000 ft
Heat Index 87 °F
Dew Point 67 °F
Humidity 58%
Rainfall 0.00 in
Snow Depth Not available.
UV 11 out of 12
Pollen 4.80 out of 12
Ozone Good
PM2.5 Good
Flu Activity Not available.
METAR KSEE 211955Z AUTO 28003KT 10SM FEW090 FEW110 31/16 A2994 RMK AO2

More Conditions Fewer Conditions

10-Day Weather Forecast

Almanac

Astronomy

Aug. 21, 2014 Rise Set
Actual Time 6:15 AM PDT 7:26 PM PDT
Civil Twilight 5:49 AM PDT 7:51 PM PDT
Nautical Twilight 5:19 AM PDT 8:22 PM PDT
Astronomical Twilight 4:47 AM PDT 8:53 PM PDT
Moon 2:55 AM PDT 4:53 PM PDT
Length of Visible Light 14h 01m
Length of Day
13h 10m
Tomorrow will be 1m 51s shorter.
Waning Crescent, 12% of the Moon is Illuminated
Today
Waning Crescent
Aug 25
New
Sep 2
First Quarter
Sep 8
Full
Sep 15
Last Quarter

Today's Extremes

State Highs State Lows

Community

WunderPhotos

Upload Photos

1,746,014 photos uploaded!

WunderBlogs® & News

Nearby

Air Quality

  Air Quality AQ Index Pollutant
Yesterday Good
PM2.5
Current Good
PM2.5
Current Good
OZONE
Thursday Good
PM2.5
Thursday Good
OZONE

Snow Depth

Station Depth Elevation
Adin Mountain 0 in 6200 ft
Cedar Pass 1 in 7100 ft
Crowder Flat 0 in 5100 ft

Earthquake Activity

City Distance Mag. Time & Date
Malibu Beach, California 130 miles 3.4 10:03 AM PDT
2014-08-15
Yucca Valley, California 111 miles 3.8 8:57 PM PDT
2014-08-14
Alberto Oviedo Mota, Mexico 115 miles 2.8 3:03 PM PDT
2014-08-14
Minimum magnitude displayed is 2.5.

Coastal Water Temperatures

Place Temperature
La Jolla, CA 72.0 °F
San Diego, CA 73.9 °F

Nearby Weather Stations